Time;durP1;ratioP1;P1;durP2;ratioP2;P2;SDS_P1;SDS_P2;PMS_P1;PMS_P2;Temp;Humidity;BMP_temperature;BMP_pressure;BME280_temperature;BME280_humidity;BME280_pressure;Samples;Min_cycle;Max_cycle;Signal;HPM_P1;HPM_P2
2022/07/17 00:00:01;;;;;;;1.27;0.90;;;16.60;47.40;;;;;;5004930;28;20188;-79
2022/07/17 00:02:28;;;;;;;1.20;0.90;;;16.70;47.00;;;;;;4999567;28;20182;-76
2022/07/17 00:04:56;;;;;;;1.53;1.00;;;16.70;47.20;;;;;;5008429;28;20185;-78
2022/07/17 00:07:23;;;;;;;1.87;0.90;;;16.80;46.80;;;;;;5008989;28;20177;-76
2022/07/17 00:09:50;;;;;;;1.87;1.10;;;16.80;46.50;;;;;;5008231;28;20192;-75
2022/07/17 00:12:18;;;;;;;2.57;0.90;;;16.80;47.00;;;;;;5014703;28;20215;-79
2022/07/17 00:14:45;;;;;;;4.30;0.90;;;17.00;46.60;;;;;;5014751;28;20596;-78
2022/07/17 00:17:14;;;;;;;0.90;0.77;;;17.00;46.90;;;;;;5012931;28;20220;-77
2022/07/17 00:19:41;;;;;;;1.10;0.80;;;17.10;46.20;;;;;;5012066;28;20189;-76
2022/07/17 00:22:10;;;;;;;1.17;0.80;;;17.20;46.60;;;;;;5010257;28;20570;-74
2022/07/17 00:24:37;;;;;;;3.93;0.90;;;17.30;46.30;;;;;;5011662;28;20187;-75
2022/07/17 00:27:05;;;;;;;0.80;0.80;;;17.40;46.60;;;;;;5010751;28;20250;-78
2022/07/17 00:29:32;;;;;;;1.20;0.97;;;17.60;45.60;;;;;;5002609;28;20235;-81
2022/07/17 00:31:59;;;;;;;1.00;0.90;;;17.50;45.90;;;;;;5006154;28;20623;-75
2022/07/17 00:34:27;;;;;;;2.97;1.20;;;17.70;44.70;;;;;;5010785;28;20227;-77
2022/07/17 00:36:54;;;;;;;0.80;0.70;;;17.90;43.50;;;;;;5013300;28;20202;-78
2022/07/17 00:39:21;;;;;;;1.43;0.90;;;18.00;42.70;;;;;;5006088;28;20264;-75
2022/07/17 00:41:49;;;;;;;1.50;1.07;;;18.20;43.30;;;;;;5010898;28;20219;-77
2022/07/17 00:44:17;;;;;;;2.90;0.90;;;18.30;42.50;;;;;;5009546;28;20580;-77
2022/07/17 00:46:44;;;;;;;1.60;0.90;;;18.30;41.00;;;;;;5013335;28;20169;-75
2022/07/17 00:49:12;;;;;;;2.20;1.10;;;18.40;40.70;;;;;;5011676;28;20180;-77
2022/07/17 00:51:39;;;;;;;3.10;1.00;;;18.50;40.60;;;;;;5012878;28;20221;-76
2022/07/17 00:54:08;;;;;;;2.00;0.70;;;18.50;40.30;;;;;;5012746;28;20222;-77
2022/07/17 00:56:37;;;;;;;1.23;1.00;;;18.50;39.90;;;;;;5011269;28;20190;-74
2022/07/17 00:59:06;;;;;;;4.33;0.87;;;18.60;40.10;;;;;;5026353;28;20189;-75
2022/07/17 01:01:33;;;;;;;1.77;0.70;;;18.70;40.00;;;;;;5027743;28;20185;-76
2022/07/17 01:04:01;;;;;;;1.63;0.87;;;18.70;39.80;;;;;;5012739;28;20258;-77
2022/07/17 01:06:28;;;;;;;1.73;0.90;;;18.80;39.50;;;;;;5013601;28;20197;-78
2022/07/17 01:08:55;;;;;;;1.40;1.00;;;19.00;39.90;;;;;;5008955;28;20181;-73
2022/07/17 01:11:23;;;;;;;1.47;1.10;;;19.10;39.10;;;;;;5011775;28;20221;-77
2022/07/17 01:13:51;;;;;;;1.40;0.77;;;19.20;38.00;;;;;;5011041;28;20189;-79
2022/07/17 01:16:18;;;;;;;0.70;0.70;;;19.40;38.30;;;;;;5014661;28;20543;-75
2022/07/17 01:18:45;;;;;;;0.93;0.80;;;19.50;37.40;;;;;;5012339;28;20193;-77
2022/07/17 01:21:13;;;;;;;1.13;0.60;;;19.50;37.10;;;;;;5013262;28;20639;-82
2022/07/17 01:23:40;;;;;;;0.93;0.63;;;19.50;36.90;;;;;;5012187;28;20186;-83
2022/07/17 01:26:08;;;;;;;2.10;0.80;;;19.60;36.60;;;;;;5010491;28;20192;-76
2022/07/17 01:28:35;;;;;;;2.30;0.60;;;19.60;36.40;;;;;;5009859;28;20587;-78
2022/07/17 01:31:03;;;;;;;1.63;0.60;;;19.70;36.70;;;;;;5003135;28;20261;-75
2022/07/17 01:33:31;;;;;;;0.93;0.60;;;19.70;36.60;;;;;;4992300;28;20186;-75
2022/07/17 01:35:58;;;;;;;0.70;0.70;;;19.90;36.60;;;;;;4992102;28;20531;-81
2022/07/17 01:38:25;;;;;;;7.80;4.30;;;20.00;36.00;;;;;;5000123;28;20181;-73
2022/07/17 01:40:53;;;;;;;2.50;0.90;;;19.90;36.00;;;;;;4994999;28;20198;-85
2022/07/17 01:43:20;;;;;;;1.40;0.60;;;20.00;36.70;;;;;;4991840;28;20244;-72
2022/07/17 01:45:48;;;;;;;53.40;23.13;;;20.10;35.50;;;;;;4999347;28;20205;-84
2022/07/17 01:48:25;;;;;;;1.23;0.60;;;20.20;36.50;;;;;;4999889;28;20844;-84
2022/07/17 01:50:52;;;;;;;1.97;0.70;;;20.40;36.50;;;;;;4994941;28;20213;-74
2022/07/17 01:53:19;;;;;;;2.27;0.80;;;20.50;35.20;;;;;;4991501;28;20177;-74
2022/07/17 01:55:48;;;;;;;3.97;0.90;;;20.60;36.10;;;;;;4970822;28;20245;-73
2022/07/17 01:58:16;;;;;;;2.87;1.63;;;20.70;35.20;;;;;;4992737;28;20632;-79
2022/07/17 02:00:44;;;;;;;51.13;26.07;;;20.70;35.20;;;;;;4992374;28;20573;-74
2022/07/17 02:03:11;;;;;;;73.60;31.00;;;20.50;34.30;;;;;;4991888;28;20177;-74
2022/07/17 02:05:38;;;;;;;16.10;7.43;;;20.60;35.10;;;;;;4994997;28;20264;-76
2022/07/17 02:08:06;;;;;;;12.33;6.20;;;20.80;34.80;;;;;;5000367;28;21022;-72
2022/07/17 02:10:34;;;;;;;7.63;2.70;;;20.70;34.20;;;;;;4991730;28;20560;-77
2022/07/17 02:13:01;;;;;;;11.87;4.87;;;20.80;35.10;;;;;;4991605;28;20185;-81
2022/07/17 02:15:29;;;;;;;7.40;2.17;;;20.90;35.00;;;;;;4991869;28;20182;-77
2022/07/17 02:17:57;;;;;;;1.07;0.70;;;21.00;34.40;;;;;;4989718;28;20568;-74
2022/07/17 02:20:24;;;;;;;2.27;1.40;;;21.00;32.70;;;;;;4993789;28;20545;-73
2022/07/17 02:22:51;;;;;;;2.03;0.60;;;21.20;32.20;;;;;;5001169;28;20570;-78
2022/07/17 02:25:19;;;;;;;4.53;2.57;;;21.10;30.50;;;;;;4995755;28;20182;-80
2022/07/17 02:27:46;;;;;;;3.57;1.20;;;21.20;31.60;;;;;;4997109;28;20185;-76
2022/07/17 02:30:17;;;;;;;0.70;0.60;;;21.30;31.30;;;;;;4998021;28;20260;-74
2022/07/17 02:32:45;;;;;;;1.00;0.50;;;21.60;30.90;;;;;;4994212;28;20205;-74
2022/07/17 02:35:13;;;;;;;1.40;0.50;;;21.80;31.00;;;;;;4995883;28;20530;-74
2022/07/17 02:37:45;;;;;;;0.93;0.63;;;21.90;29.90;;;;;;4996892;28;20182;-76
2022/07/17 02:40:13;;;;;;;3.80;0.70;;;21.90;30.10;;;;;;4984422;28;20278;-73
2022/07/17 02:42:41;;;;;;;2.00;0.73;;;21.80;29.30;;;;;;4996329;28;20194;-77
2022/07/17 02:45:09;;;;;;;1.50;0.67;;;21.80;30.40;;;;;;4994432;28;20724;-74
2022/07/17 02:47:37;;;;;;;0.57;0.50;;;22.00;30.20;;;;;;4990324;28;20649;-83
2022/07/17 02:50:08;;;;;;;2.97;0.60;;;22.00;29.80;;;;;;4994755;28;20269;-74
2022/07/17 02:52:37;;;;;;;2.10;0.50;;;21.80;29.90;;;;;;4996215;28;20540;-68
2022/07/17 02:55:06;;;;;;;2.10;0.50;;;21.90;29.40;;;;;;4995935;28;20174;-77
2022/07/17 02:57:33;;;;;;;0.60;0.40;;;21.70;29.50;;;;;;4989875;28;20190;-72
2022/07/17 03:00:01;;;;;;;0.60;0.40;;;21.80;29.80;;;;;;4984575;28;20232;-80
2022/07/17 03:02:28;;;;;;;0.83;0.50;;;21.90;28.90;;;;;;4996267;28;20178;-75
2022/07/17 03:04:56;;;;;;;1.80;1.00;;;21.80;28.10;;;;;;4996141;28;20166;-71
2022/07/17 03:07:23;;;;;;;2.67;0.80;;;21.80;29.00;;;;;;4989044;28;20189;-73
2022/07/17 03:09:50;;;;;;;1.07;0.50;;;21.80;29.00;;;;;;4989157;28;20181;-73
2022/07/17 03:12:18;;;;;;;1.37;0.53;;;21.80;28.70;;;;;;4990477;28;20179;-72
2022/07/17 03:14:45;;;;;;;2.47;0.60;;;22.10;28.90;;;;;;4993045;28;20182;-73
2022/07/17 03:17:12;;;;;;;4.73;0.60;;;22.10;28.80;;;;;;4995915;28;20178;-74
2022/07/17 03:19:40;;;;;;;1.87;0.60;;;22.30;28.80;;;;;;4994691;28;20194;-79
2022/07/17 03:22:07;;;;;;;3.73;0.50;;;22.30;28.60;;;;;;4994441;28;20663;-75
2022/07/17 03:24:34;;;;;;;1.97;1.00;;;22.00;27.80;;;;;;4995840;28;20205;-76
2022/07/17 03:27:02;;;;;;;3.17;0.70;;;22.20;27.80;;;;;;4995905;28;20711;-80
2022/07/17 03:29:29;;;;;;;0.47;0.47;;;22.00;28.10;;;;;;4995912;28;20196;-80
2022/07/17 03:31:57;;;;;;;0.97;0.57;;;22.10;28.30;;;;;;5015990;28;20286;-72
2022/07/17 03:34:24;;;;;;;1.67;0.70;;;21.90;28.20;;;;;;5016379;28;20243;-75
2022/07/17 03:36:51;;;;;;;1.93;0.73;;;22.10;27.60;;;;;;5013966;28;20186;-73
2022/07/17 03:39:19;;;;;;;0.77;0.50;;;22.40;27.80;;;;;;5013660;28;20609;-76
2022/07/17 03:41:46;;;;;;;1.73;0.80;;;22.50;27.00;;;;;;5018243;28;20231;-78
2022/07/17 03:44:14;;;;;;;0.83;0.57;;;22.40;27.20;;;;;;5033874;28;20223;-72
2022/07/17 03:46:41;;;;;;;4.43;0.50;;;22.00;26.70;;;;;;5034920;28;20215;-77
2022/07/17 03:49:10;;;;;;;1.43;0.50;;;22.00;26.60;;;;;;5018043;28;20651;-72
2022/07/17 03:51:37;;;;;;;2.23;0.50;;;22.00;27.70;;;;;;5017758;28;20210;-78
2022/07/17 03:54:05;;;;;;;0.80;0.70;;;22.20;26.20;;;;;;5034350;28;20535;-76
2022/07/17 03:56:32;;;;;;;0.67;0.50;;;22.20;26.30;;;;;;5029155;28;20223;-78
2022/07/17 03:59:00;;;;;;;3.27;1.40;;;22.40;26.20;;;;;;4999019;28;20177;-74
2022/07/17 04:01:27;;;;;;;0.57;0.50;;;22.30;26.30;;;;;;5032981;28;20169;-82
2022/07/17 04:03:54;;;;;;;0.87;0.40;;;22.40;25.50;;;;;;5034193;28;20646;-78
2022/07/17 04:06:22;;;;;;;2.27;0.60;;;22.10;25.80;;;;;;5023928;28;20177;-77
2022/07/17 04:08:49;;;;;;;0.93;0.50;;;22.20;26.40;;;;;;5029376;28;20177;-81
2022/07/17 04:11:16;;;;;;;0.67;0.40;;;22.30;26.00;;;;;;4996718;28;20213;-75
2022/07/17 04:13:44;;;;;;;2.10;0.50;;;22.40;25.60;;;;;;5034155;28;20226;-79
2022/07/17 04:16:11;;;;;;;1.17;0.60;;;22.70;25.80;;;;;;5033822;28;20263;-72
2022/07/17 04:18:39;;;;;;;0.40;0.40;;;22.80;25.50;;;;;;5033406;28;20188;-73
2022/07/17 04:21:09;;;;;;;0.77;0.50;;;22.40;25.90;;;;;;5032942;28;20181;-71
2022/07/17 04:23:37;;;;;;;0.40;0.40;;;22.50;25.70;;;;;;5006597;28;20267;-72
2022/07/17 04:26:08;;;;;;;0.60;0.50;;;22.70;25.40;;;;;;5033851;28;20174;-75
2022/07/17 04:28:36;;;;;;;3.17;0.57;;;22.80;25.90;;;;;;5034168;28;20196;-74
2022/07/17 04:31:03;;;;;;;0.97;0.60;;;23.10;25.70;;;;;;5034345;28;20563;-77
2022/07/17 04:33:31;;;;;;;2.83;0.50;;;23.30;24.30;;;;;;5034065;28;20254;-73
2022/07/17 04:35:58;;;;;;;1.27;0.60;;;22.80;24.70;;;;;;5033524;28;20185;-76
2022/07/17 04:38:26;;;;;;;1.17;0.50;;;22.90;24.00;;;;;;5030743;28;20513;-76
2022/07/17 04:40:53;;;;;;;0.50;0.50;;;22.60;24.70;;;;;;5013463;28;20181;-73
2022/07/17 04:43:20;;;;;;;1.17;0.40;;;23.00;24.70;;;;;;5020480;28;20188;-77
2022/07/17 04:45:48;;;;;;;1.27;0.40;;;23.00;24.00;;;;;;5005995;28;20189;-75
2022/07/17 04:48:15;;;;;;;1.10;0.53;;;23.10;24.30;;;;;;5018251;28;20600;-75
2022/07/17 04:50:42;;;;;;;1.33;0.47;;;23.10;24.50;;;;;;5021898;28;20219;-78
2022/07/17 04:53:10;;;;;;;1.60;0.50;;;23.00;24.30;;;;;;5012407;28;20607;-81
2022/07/17 04:55:37;;;;;;;5.13;0.60;;;22.80;24.40;;;;;;5011089;28;20545;-74
2022/07/17 04:58:05;;;;;;;1.10;0.60;;;22.90;25.20;;;;;;5016501;28;20195;-79
2022/07/17 05:00:32;;;;;;;0.60;0.53;;;23.10;24.60;;;;;;5015956;28;20178;-77
2022/07/17 05:03:00;;;;;;;1.30;0.50;;;22.90;24.40;;;;;;5011165;28;20188;-75
2022/07/17 05:05:27;;;;;;;0.97;0.50;;;22.90;24.60;;;;;;5010751;28;20185;-78
2022/07/17 05:07:54;;;;;;;3.77;0.60;;;22.90;24.40;;;;;;5013033;28;20654;-75
2022/07/17 05:10:22;;;;;;;0.70;0.40;;;22.70;24.80;;;;;;5007834;28;20231;-75
2022/07/17 05:12:49;;;;;;;0.40;0.40;;;22.90;24.80;;;;;;5001513;28;20217;-73
2022/07/17 05:15:16;;;;;;;3.00;0.50;;;23.00;24.80;;;;;;5013404;28;20174;-74
2022/07/17 05:17:44;;;;;;;1.10;0.50;;;22.90;24.30;;;;;;5017215;28;20187;-74
2022/07/17 05:20:11;;;;;;;2.20;0.40;;;22.80;24.40;;;;;;5032724;28;20211;-76
2022/07/17 05:22:38;;;;;;;0.40;0.40;;;23.00;24.20;;;;;;5019427;28;20177;-73
2022/07/17 05:25:06;;;;;;;0.73;0.40;;;23.00;24.80;;;;;;5028577;28;20187;-80
2022/07/17 05:27:34;;;;;;;2.13;0.70;;;22.80;24.50;;;;;;5032394;28;20176;-77
2022/07/17 05:30:01;;;;;;;1.47;0.50;;;22.80;24.80;;;;;;5012379;28;20193;-73
2022/07/17 05:32:28;;;;;;;1.23;0.50;;;22.80;25.30;;;;;;4992476;28;20229;-74
2022/07/17 05:34:56;;;;;;;3.83;0.60;;;22.90;25.50;;;;;;4985777;28;20181;-76
2022/07/17 05:37:23;;;;;;;1.87;0.50;;;23.00;25.50;;;;;;4981064;28;20264;-74
2022/07/17 05:39:50;;;;;;;1.03;0.60;;;23.10;25.20;;;;;;4992114;28;20269;-71
2022/07/17 05:42:18;;;;;;;0.50;0.50;;;23.00;24.80;;;;;;4993457;28;20170;-74
2022/07/17 05:44:45;;;;;;;1.03;0.50;;;22.80;25.30;;;;;;4990124;28;20195;-74
2022/07/17 05:47:12;;;;;;;1.53;0.60;;;22.60;25.50;;;;;;4988895;28;20184;-78
2022/07/17 05:49:40;;;;;;;2.23;0.50;;;22.50;24.70;;;;;;4988354;28;20197;-78
2022/07/17 05:52:08;;;;;;;0.70;0.50;;;22.50;24.80;;;;;;4991618;28;20225;-83
2022/07/17 05:54:35;;;;;;;0.60;0.40;;;22.40;25.60;;;;;;4989858;28;20610;-75
2022/07/17 05:57:03;;;;;;;1.43;0.70;;;22.50;24.90;;;;;;4989803;28;20574;-81
2022/07/17 05:59:31;;;;;;;0.87;0.50;;;22.30;25.60;;;;;;4992120;28;20710;-74
2022/07/17 06:01:58;;;;;;;2.67;0.50;;;22.30;25.30;;;;;;4986096;28;20193;-77
2022/07/17 06:04:26;;;;;;;0.80;0.60;;;22.20;25.50;;;;;;4987229;28;20690;-73
2022/07/17 06:06:53;;;;;;;1.37;0.87;;;22.20;25.70;;;;;;4985239;28;20684;-72
2022/07/17 06:09:20;;;;;;;1.43;0.80;;;22.50;25.40;;;;;;4990850;28;20198;-75
2022/07/17 06:11:48;;;;;;;0.63;0.50;;;22.20;25.30;;;;;;4975196;28;20232;-74
2022/07/17 06:14:16;;;;;;;2.10;0.70;;;22.00;25.70;;;;;;4990101;28;20182;-76
2022/07/17 06:16:43;;;;;;;1.33;0.93;;;21.80;26.10;;;;;;4988577;28;20212;-74
2022/07/17 06:19:10;;;;;;;1.77;0.53;;;21.10;26.60;;;;;;4994428;28;20274;-74
2022/07/17 06:21:38;;;;;;;2.57;0.60;;;20.60;27.50;;;;;;4991970;28;20197;-72
2022/07/17 06:24:05;;;;;;;0.43;0.40;;;20.30;27.40;;;;;;4991047;28;20735;-72
2022/07/17 06:26:33;;;;;;;3.90;0.57;;;20.50;26.70;;;;;;4991008;28;20540;-73
2022/07/17 06:29:00;;;;;;;0.77;0.50;;;20.30;26.70;;;;;;4990716;28;20185;-74
2022/07/17 06:31:27;;;;;;;1.17;0.70;;;20.10;27.20;;;;;;5000451;28;20682;-74
2022/07/17 06:33:55;;;;;;;1.00;0.70;;;19.80;27.70;;;;;;5011165;28;20185;-77
2022/07/17 06:36:22;;;;;;;0.60;0.60;;;19.60;28.70;;;;;;5007157;28;20195;-77
2022/07/17 06:38:49;;;;;;;1.17;0.63;;;19.50;29.40;;;;;;5010414;28;20200;-73
2022/07/17 06:41:17;;;;;;;0.80;0.60;;;19.30;28.60;;;;;;5011106;28;20219;-76
2022/07/17 06:43:44;;;;;;;1.03;0.60;;;19.20;28.80;;;;;;5009071;28;20236;-76
2022/07/17 06:46:12;;;;;;;3.13;0.87;;;19.20;29.30;;;;;;5005838;28;20178;-75
2022/07/17 06:48:39;;;;;;;2.07;1.07;;;19.00;29.50;;;;;;5009496;28;20283;-75
2022/07/17 06:51:06;;;;;;;2.93;0.83;;;19.00;29.70;;;;;;5007814;28;20718;-72
2022/07/17 06:53:34;;;;;;;1.43;0.77;;;18.90;28.80;;;;;;5004582;28;20201;-74
2022/07/17 06:56:01;;;;;;;0.97;0.60;;;18.90;29.30;;;;;;5010559;28;20192;-73
2022/07/17 06:58:28;;;;;;;1.27;0.90;;;18.80;28.90;;;;;;5010585;28;20185;-76
2022/07/17 07:00:56;;;;;;;0.67;0.67;;;18.80;29.60;;;;;;5010372;28;20581;-73
2022/07/17 07:03:23;;;;;;;0.80;0.80;;;18.70;29.50;;;;;;4989705;28;20659;-72
2022/07/17 07:05:51;;;;;;;0.97;0.80;;;18.60;28.90;;;;;;5008009;28;20204;-71
2022/07/17 07:08:18;;;;;;;0.73;0.60;;;18.60;29.50;;;;;;5014394;28;20218;-72
2022/07/17 07:10:45;;;;;;;2.80;0.70;;;18.50;28.90;;;;;;5011178;28;20197;-72
2022/07/17 07:13:13;;;;;;;0.97;0.87;;;18.40;29.80;;;;;;5013339;28;20583;-72
2022/07/17 07:15:41;;;;;;;2.83;0.70;;;18.40;29.20;;;;;;5013407;28;20182;-71
2022/07/17 07:18:08;;;;;;;1.40;0.70;;;18.40;29.20;;;;;;5011664;28;20189;-72
2022/07/17 07:20:36;;;;;;;2.73;0.60;;;18.40;29.30;;;;;;5012217;28;20193;-77
2022/07/17 07:23:03;;;;;;;1.20;0.87;;;18.30;29.80;;;;;;5014346;28;20339;-75
2022/07/17 07:25:30;;;;;;;1.27;0.70;;;18.20;30.20;;;;;;5012837;28;20196;-74
2022/07/17 07:27:58;;;;;;;3.70;0.77;;;18.10;30.40;;;;;;5012248;28;20188;-73
2022/07/17 07:30:25;;;;;;;0.97;0.70;;;18.00;30.30;;;;;;5008972;28;20321;-75
2022/07/17 07:32:52;;;;;;;2.03;0.90;;;18.00;30.60;;;;;;4990035;28;20260;-81
2022/07/17 07:35:20;;;;;;;3.03;0.90;;;17.90;30.50;;;;;;4991952;28;20585;-72
2022/07/17 07:37:47;;;;;;;1.40;0.90;;;17.90;30.70;;;;;;4993177;28;20181;-73
2022/07/17 07:40:15;;;;;;;2.47;1.13;;;17.90;30.40;;;;;;4992805;28;20712;-77
2022/07/17 07:42:42;;;;;;;7.23;1.23;;;18.00;30.60;;;;;;4991378;28;20221;-78
2022/07/17 07:45:10;;;;;;;0.93;0.83;;;18.00;30.40;;;;;;4992875;28;20618;-75
2022/07/17 07:47:53;;;;;;;1.37;0.90;;;17.90;30.70;;;;;;4992721;28;20233;-77
2022/07/17 07:50:23;;;;;;;1.20;1.07;;;17.90;30.60;;;;;;4991378;28;20216;-73
2022/07/17 07:52:52;;;;;;;2.33;1.00;;;17.80;30.80;;;;;;4997438;28;20553;-74
2022/07/17 07:55:21;;;;;;;3.93;1.03;;;17.80;30.80;;;;;;4993762;28;20237;-75
2022/07/17 07:58:01;;;;;;;3.87;2.13;;;17.80;30.70;;;;;;4991814;28;20194;-77
2022/07/17 08:00:28;;;;;;;1.23;0.90;;;17.70;31.00;;;;;;4993127;28;20715;-75
2022/07/17 08:02:56;;;;;;;2.80;1.10;;;17.60;31.50;;;;;;4992913;28;20491;-75
2022/07/17 08:05:23;;;;;;;1.90;0.80;;;17.50;31.80;;;;;;4989798;28;20186;-75
2022/07/17 08:07:51;;;;;;;1.73;1.03;;;17.40;32.10;;;;;;4990521;28;20276;-76
2022/07/17 08:10:18;;;;;;;3.17;1.43;;;17.30;32.40;;;;;;4992974;28;20209;-80
2022/07/17 08:12:46;;;;;;;3.83;1.37;;;17.30;32.70;;;;;;4991690;28;20255;-82
2022/07/17 08:15:15;;;;;;;1.67;1.07;;;17.20;32.70;;;;;;4999782;28;20192;-74
2022/07/17 08:17:42;;;;;;;7.47;1.37;;;17.30;32.80;;;;;;4988997;28;20593;-78
2022/07/17 08:20:10;;;;;;;5.47;1.83;;;17.20;33.10;;;;;;4992825;28;20189;-78
2022/07/17 08:22:37;;;;;;;2.47;1.10;;;17.20;33.30;;;;;;4992934;28;20183;-75
2022/07/17 08:25:05;;;;;;;3.27;1.40;;;17.20;32.90;;;;;;4993849;28;20290;-83
2022/07/17 08:27:40;;;;;;;1.47;1.30;;;17.20;33.50;;;;;;4980731;28;20187;-75
2022/07/17 08:30:10;;;;;;;3.50;1.00;;;17.20;33.70;;;;;;4979682;28;20757;-74
2022/07/17 08:32:39;;;;;;;2.27;1.43;;;17.20;33.40;;;;;;5013387;28;20271;-76
2022/07/17 08:35:07;;;;;;;3.40;1.30;;;17.20;33.60;;;;;;5013038;28;20173;-74
2022/07/17 08:37:52;;;;;;;3.23;1.37;;;17.20;33.90;;;;;;5019258;28;20701;-77
2022/07/17 08:40:25;;;;;;;1.30;1.20;;;17.20;33.80;;;;;;5011505;28;20264;-76
2022/07/17 08:42:54;;;;;;;1.67;1.20;;;17.20;33.70;;;;;;5013517;28;20534;-77
2022/07/17 08:45:22;;;;;;;3.50;1.20;;;17.00;34.10;;;;;;5011709;28;20181;-80
2022/07/17 08:47:51;;;;;;;4.60;1.87;;;17.00;34.40;;;;;;5012768;28;20188;-77
2022/07/17 08:50:24;;;;;;;2.83;1.37;;;17.00;34.50;;;;;;5013101;28;20188;-77
2022/07/17 08:52:52;;;;;;;2.23;1.20;;;17.00;34.70;;;;;;5013139;28;20543;-77
2022/07/17 08:55:19;;;;;;;1.90;0.90;;;17.00;34.50;;;;;;5029948;28;20636;-83
2022/07/17 08:57:47;;;;;;;3.43;1.20;;;16.90;35.00;;;;;;5011366;28;20198;-79
2022/07/17 09:00:18;;;;;;;6.43;1.30;;;16.80;35.30;;;;;;5013051;28;20596;-77
2022/07/17 09:03:07;;;;;;;3.73;1.20;;;16.80;34.70;;;;;;5012832;28;20543;-79
2022/07/17 09:05:36;;;;;;;3.53;1.57;;;16.80;35.10;;;;;;5006399;28;20189;-76
2022/07/17 09:08:05;;;;;;;4.07;1.07;;;16.80;35.00;;;;;;5008679;28;20184;-77
2022/07/17 09:10:45;;;;;;;5.93;1.13;;;16.80;34.90;;;;;;5006358;28;20204;-79
2022/07/17 09:13:18;;;;;;;3.10;1.30;;;16.90;35.10;;;;;;5012596;28;20665;-78
2022/07/17 09:15:46;;;;;;;2.53;2.17;;;17.00;34.80;;;;;;5013390;28;20182;-78
2022/07/17 09:18:14;;;;;;;2.37;1.70;;;17.00;34.40;;;;;;5013304;28;20176;-73
2022/07/17 09:20:56;;;;;;;6.60;1.57;;;17.00;34.60;;;;;;5012984;28;20247;-78
2022/07/17 09:23:26;;;;;;;4.30;1.70;;;16.80;35.20;;;;;;5014229;28;20205;-80
2022/07/17 09:25:56;;;;;;;3.23;1.00;;;16.80;35.40;;;;;;5011205;28;20191;-84
2022/07/17 09:28:24;;;;;;;6.53;1.30;;;16.70;35.40;;;;;;5007548;28;20544;-82
2022/07/17 09:30:54;;;;;;;5.17;1.00;;;16.80;35.50;;;;;;5006361;28;20271;-79
2022/07/17 09:33:27;;;;;;;3.87;1.60;;;16.80;35.30;;;;;;4992997;28;20181;-77
2022/07/17 09:35:56;;;;;;;2.83;1.20;;;16.80;35.80;;;;;;4992151;28;20244;-81
2022/07/17 09:38:31;;;;;;;5.27;1.20;;;16.60;36.10;;;;;;4992434;28;20191;-80
2022/07/17 09:41:11;;;;;;;2.40;0.80;;;16.60;36.20;;;;;;4991376;28;20192;-82
2022/07/17 09:43:47;;;;;;;1.67;0.97;;;16.50;36.50;;;;;;4995703;28;20192;-79
2022/07/17 09:46:20;;;;;;;6.43;1.10;;;16.50;36.60;;;;;;4989706;28;20189;-80
2022/07/17 09:48:51;;;;;;;2.60;1.27;;;16.70;36.00;;;;;;4992243;28;20614;-83
2022/07/17 09:51:24;;;;;;;2.53;1.13;;;16.60;36.80;;;;;;4971914;28;20229;-85
2022/07/17 09:53:54;;;;;;;1.90;1.20;;;16.50;36.90;;;;;;4992216;28;20293;-79
2022/07/17 09:56:23;;;;;;;2.37;1.00;;;16.40;37.20;;;;;;4992618;28;20195;-81
2022/07/17 09:59:00;;;;;;;2.10;1.10;;;16.30;37.80;;;;;;4991656;28;20184;-78
2022/07/17 10:01:27;;;;;;;3.73;1.63;;;16.30;38.10;;;;;;4986436;28;20665;-79
2022/07/17 10:03:55;;;;;;;2.30;1.40;;;16.30;38.10;;;;;;4992848;28;20179;-80
2022/07/17 10:06:25;;;;;;;1.57;1.00;;;16.20;39.10;;;;;;4992522;28;20218;-78
2022/07/17 10:08:53;;;;;;;1.63;1.00;;;16.10;39.50;;;;;;4992547;28;20182;-74
2022/07/17 10:11:22;;;;;;;1.80;1.30;;;16.00;39.80;;;;;;4987714;28;20248;-77
2022/07/17 10:13:52;;;;;;;1.90;1.10;;;15.90;40.00;;;;;;4987115;28;20710;-78
2022/07/17 10:16:31;;;;;;;2.93;2.07;;;15.80;40.90;;;;;;4992037;28;20211;-76
2022/07/17 10:19:02;;;;;;;5.57;2.13;;;15.80;40.70;;;;;;4997799;28;20181;-76
2022/07/17 10:21:31;;;;;;;2.47;1.30;;;15.80;40.90;;;;;;4997369;28;20189;-76
2022/07/17 10:23:58;;;;;;;5.10;1.80;;;15.70;41.50;;;;;;4989335;28;20197;-78
2022/07/17 10:26:40;;;;;;;8.53;1.67;;;15.60;41.90;;;;;;4992529;28;20227;-81
2022/07/17 10:29:38;;;;;;;3.50;1.73;;;15.50;42.40;;;;;;4979758;28;20261;-78
2022/07/17 10:32:13;;;;;;;6.43;1.70;;;15.50;42.30;;;;;;4983112;28;20261;-77
2022/07/17 10:34:44;;;;;;;2.53;1.40;;;15.40;42.40;;;;;;4974300;28;20190;-77
2022/07/17 10:37:21;;;;;;;3.07;1.30;;;15.30;42.50;;;;;;5001556;28;20544;-79
2022/07/17 10:39:55;;;;;;;3.87;1.30;;;15.30;42.80;;;;;;4993059;28;20185;-76
2022/07/17 10:42:51;;;;;;;2.10;1.10;;;15.30;42.70;;;;;;4992700;28;20183;-77
2022/07/17 10:45:23;;;;;;;2.47;1.23;;;15.40;43.00;;;;;;4994161;28;20252;-78
2022/07/17 10:48:19;;;;;;;3.03;1.23;;;15.40;43.20;;;;;;4993102;28;20197;-80
2022/07/17 10:50:56;;;;;;;2.00;0.97;;;15.30;43.40;;;;;;4981578;28;20266;-77
2022/07/17 10:53:28;;;;;;;1.87;1.20;;;15.30;43.70;;;;;;5005389;28;20184;-78
2022/07/17 10:56:05;;;;;;;3.10;1.50;;;15.20;44.10;;;;;;4997290;28;20186;-78
2022/07/17 10:58:33;;;;;;;2.87;1.30;;;15.20;44.30;;;;;;4993180;28;20701;-78
2022/07/17 11:01:10;;;;;;;3.80;1.40;;;15.30;43.90;;;;;;4995852;28;20186;-79
2022/07/17 11:03:58;;;;;;;1.93;1.10;;;15.30;44.50;;;;;;4987952;28;20258;-79
2022/07/17 11:06:27;;;;;;;1.90;1.10;;;15.30;44.30;;;;;;4992187;28;20549;-82
2022/07/17 11:09:04;;;;;;;1.50;1.20;;;15.30;44.50;;;;;;4995020;28;20178;-77
2022/07/17 11:11:50;;;;;;;1.83;1.10;;;15.30;44.40;;;;;;4997309;28;20210;-78
2022/07/17 11:14:27;;;;;;;4.30;1.20;;;15.30;44.50;;;;;;4989785;28;20249;-78
2022/07/17 11:17:02;;;;;;;1.40;0.90;;;15.30;44.40;;;;;;4996158;28;20735;-79
2022/07/17 11:19:32;;;;;;;1.33;1.00;;;15.40;44.10;;;;;;4993222;28;20257;-77
2022/07/17 11:22:09;;;;;;;1.83;1.07;;;15.40;44.40;;;;;;4993469;28;20217;-78
2022/07/17 11:24:44;;;;;;;1.87;1.17;;;15.50;44.20;;;;;;4995135;28;20189;-77
2022/07/17 11:27:18;;;;;;;2.03;1.10;;;15.50;44.30;;;;;;4998175;28;20205;-80
2022/07/17 11:29:46;;;;;;;3.93;1.40;;;15.60;44.30;;;;;;4995624;28;20548;-76
2022/07/17 11:32:13;;;;;;;4.87;1.10;;;15.60;44.40;;;;;;4991033;28;20234;-83
2022/07/17 11:34:41;;;;;;;2.13;1.13;;;15.60;44.70;;;;;;4986372;28;20245;-77
2022/07/17 11:37:09;;;;;;;2.43;1.10;;;15.50;45.10;;;;;;4985735;28;20233;-81
2022/07/17 11:39:42;;;;;;;2.97;0.80;;;15.50;45.20;;;;;;4993149;28;20186;-78
2022/07/17 11:42:11;;;;;;;1.70;1.20;;;15.50;45.30;;;;;;4995065;28;20233;-85
2022/07/17 11:44:39;;;;;;;2.07;1.00;;;15.60;45.60;;;;;;5003735;28;20181;-81
2022/07/17 11:47:07;;;;;;;1.57;1.00;;;15.60;45.70;;;;;;4995997;28;20724;-82
2022/07/17 11:49:39;;;;;;;0.97;0.80;;;15.40;46.10;;;;;;4994918;28;20190;-78
2022/07/17 11:52:19;;;;;;;1.67;0.90;;;15.50;46.40;;;;;;4992083;28;20225;-78
2022/07/17 11:54:56;;;;;;;1.23;1.00;;;15.40;46.30;;;;;;4991190;28;20174;-80
2022/07/17 11:57:26;;;;;;;1.33;1.20;;;15.50;46.00;;;;;;4994967;28;20192;-83
2022/07/17 11:59:56;;;;;;;2.90;1.20;;;15.60;46.10;;;;;;4990929;28;20184;-80
2022/07/17 12:02:31;;;;;;;2.90;1.00;;;15.60;46.10;;;;;;4997800;28;20201;-77
2022/07/17 12:05:00;;;;;;;5.47;1.00;;;15.50;46.50;;;;;;4994866;28;20213;-81
2022/07/17 12:07:42;;;;;;;2.23;1.10;;;15.50;46.30;;;;;;4995470;28;20178;-79
2022/07/17 12:10:13;;;;;;;1.10;0.80;;;15.60;46.50;;;;;;4989727;28;20240;-78
2022/07/17 12:12:51;;;;;;;3.40;1.00;;;15.60;46.70;;;;;;4994246;28;20549;-81
2022/07/17 12:15:19;;;;;;;1.20;1.00;;;15.50;47.00;;;;;;4995309;28;20180;-81
2022/07/17 12:17:47;;;;;;;1.03;1.03;;;15.50;47.30;;;;;;5000777;28;20182;-79
2022/07/17 12:20:14;;;;;;;1.50;1.20;;;15.40;47.50;;;;;;4994376;28;20568;-78
2022/07/17 12:22:50;;;;;;;1.20;1.07;;;15.40;47.60;;;;;;4992516;28;20186;-79
2022/07/17 12:25:28;;;;;;;2.00;1.17;;;15.40;48.00;;;;;;4982517;28;20671;-79
2022/07/17 12:27:55;;;;;;;2.43;1.23;;;15.30;48.50;;;;;;4992293;28;20192;-83
2022/07/17 12:30:23;;;;;;;1.20;1.00;;;15.30;48.80;;;;;;4993449;28;20221;-82
2022/07/17 12:32:50;;;;;;;1.97;1.20;;;15.20;49.30;;;;;;4990427;28;20186;-80
2022/07/17 12:35:17;;;;;;;1.73;1.00;;;15.20;49.60;;;;;;4986861;28;20572;-80
2022/07/17 12:37:45;;;;;;;2.73;1.30;;;15.10;50.10;;;;;;4993495;28;20691;-77
2022/07/17 12:40:12;;;;;;;4.43;1.00;;;15.10;50.30;;;;;;4993681;28;20264;-81
2022/07/17 12:42:39;;;;;;;1.67;1.10;;;15.00;50.40;;;;;;4993928;28;20604;-83
2022/07/17 12:45:08;;;;;;;3.67;1.00;;;15.10;50.60;;;;;;4993920;28;20186;-81
2022/07/17 12:47:35;;;;;;;1.77;1.10;;;15.00;51.00;;;;;;4992073;28;20183;-84
2022/07/17 12:50:02;;;;;;;2.77;0.97;;;15.00;51.10;;;;;;4992453;28;20178;-81
2022/07/17 12:52:30;;;;;;;2.23;1.00;;;14.90;51.20;;;;;;4997593;28;20214;-79
2022/07/17 12:54:57;;;;;;;4.43;1.40;;;14.90;51.50;;;;;;4993294;28;20737;-84